createdAt,value
2022-11-16T00:02:00.392Z,94.07
2022-11-16T00:05:03.733Z,94.59
2022-11-16T00:08:06.465Z,94.38
2022-11-16T00:11:11.878Z,94.53
2022-11-16T00:14:14.284Z,93.93
2022-11-16T00:17:16.694Z,94.92
2022-11-16T00:20:19.048Z,94.54
2022-11-16T00:23:21.467Z,95.77
2022-11-16T00:26:24.267Z,94.68
2022-11-16T00:29:27.243Z,95.05
2022-11-16T00:32:29.692Z,95.50
2022-11-16T00:35:32.561Z,95.19
2022-11-16T00:38:35.324Z,94.88
2022-11-16T00:41:37.964Z,94.82
2022-11-16T00:44:40.405Z,94.71
2022-11-16T00:47:42.817Z,95.07
2022-11-16T00:50:45.916Z,94.82
2022-11-16T00:53:49.214Z,94.77
2022-11-16T00:56:53.049Z,95.25
2022-11-16T00:59:56.261Z,94.88
2022-11-16T01:02:58.985Z,95.53
2022-11-16T01:06:05.525Z,95.00
2022-11-16T01:09:07.888Z,95.46
2022-11-16T01:12:10.317Z,94.52
2022-11-16T01:15:13.677Z,95.06
2022-11-16T01:18:17.641Z,95.27
2022-11-16T01:21:21.284Z,95.58
2022-11-16T01:24:25.089Z,95.88
2022-11-16T01:27:27.654Z,96.51
2022-11-16T01:30:31.091Z,96.21
2022-11-16T01:33:40.484Z,96.24
2022-11-16T01:36:48.984Z,96.26
2022-11-16T01:39:52.649Z,96.41
2022-11-16T01:42:55.324Z,97.06
2022-11-16T01:45:57.749Z,97.04
2022-11-16T01:49:02.653Z,97.41
2022-11-16T01:52:08.904Z,97.24
2022-11-16T01:55:13.149Z,97.28
2022-11-16T01:58:36.344Z,97.35
2022-11-16T02:01:52.883Z,97.50
2022-11-16T02:04:58.385Z,96.92
2022-11-16T02:08:55.828Z,97.16
2022-11-16T02:12:12.183Z,96.71
2022-11-16T02:15:39.367Z,96.61
2022-11-16T02:19:04.841Z,96.51
2022-11-16T02:22:26.737Z,96.81
2022-11-16T02:25:40.372Z,96.65
2022-11-16T02:28:45.900Z,96.81
2022-11-16T02:32:06.306Z,96.48
2022-11-16T02:35:31.216Z,96.82
2022-11-16T02:38:40.030Z,96.25
2022-11-16T02:41:44.397Z,96.20
2022-11-16T02:44:50.827Z,96.63
2022-11-16T02:47:56.340Z,96.55
2022-11-16T02:50:58.891Z,96.41
2022-11-16T02:54:08.677Z,96.43
2022-11-16T02:57:28.909Z,96.70
2022-11-16T03:00:38.077Z,96.35
2022-11-16T03:03:43.402Z,95.86
2022-11-16T03:06:46.868Z,95.82
2022-11-16T03:09:50.301Z,95.86
2022-11-16T03:12:52.892Z,95.85
2022-11-16T03:15:56.371Z,95.96
2022-11-16T03:19:03.405Z,96.17
2022-11-16T03:22:15.454Z,95.73
2022-11-16T03:25:20.684Z,95.76
2022-11-16T03:28:32.573Z,95.49
2022-11-16T03:31:49.574Z,96.33
2022-11-16T03:34:59.968Z,96.34
2022-11-16T03:38:05.771Z,95.40
2022-11-16T03:41:09.821Z,95.64
2022-11-16T03:44:14.376Z,95.02
2022-11-16T03:47:17.812Z,95.46
2022-11-16T03:50:21.652Z,96.09
2022-11-16T03:53:24.081Z,95.92
2022-11-16T03:56:26.616Z,96.38
2022-11-16T03:59:30.097Z,96.66
2022-11-16T04:02:33.469Z,95.93
2022-11-16T04:05:54.469Z,95.99
2022-11-16T04:09:15.758Z,96.82
2022-11-16T04:12:39.052Z,96.84
2022-11-16T04:16:00.926Z,96.49
2022-11-16T04:19:22.006Z,95.96
2022-11-16T04:22:53.088Z,96.26
2022-11-16T04:25:55.686Z,96.45
2022-11-16T04:28:59.502Z,96.07
2022-11-16T04:32:21.043Z,96.05
2022-11-16T04:35:42.240Z,96.18
2022-11-16T04:38:46.301Z,96.14
2022-11-16T04:42:09.053Z,97.07
2022-11-16T04:45:46.740Z,96.70
2022-11-16T04:48:50.853Z,96.16
2022-11-16T04:51:54.565Z,96.95
2022-11-16T04:54:59.155Z,96.74
2022-11-16T04:58:03.540Z,95.81
2022-11-16T05:01:06.925Z,96.17
2022-11-16T05:04:10.180Z,96.38
2022-11-16T05:07:14.555Z,96.20
2022-11-16T05:10:19.475Z,95.85
2022-11-16T05:13:21.968Z,96.58
2022-11-16T05:16:26.078Z,96.60
2022-11-16T05:19:48.440Z,96.79
2022-11-16T05:22:56.376Z,96.51
2022-11-16T05:26:00.821Z,95.66
2022-11-16T05:29:04.491Z,95.64
2022-11-16T05:32:07.731Z,96.72
2022-11-16T05:35:10.355Z,96.17
2022-11-16T05:38:14.678Z,95.89
2022-11-16T05:41:22.026Z,95.91
2022-11-16T05:44:25.810Z,95.33
2022-11-16T05:47:28.732Z,95.51
2022-11-16T05:50:34.722Z,96.05
2022-11-16T05:53:46.561Z,95.43
2022-11-16T05:56:55.860Z,95.58
2022-11-16T05:59:59.665Z,95.87
2022-11-16T06:03:03.980Z,96.63
2022-11-16T06:06:08.812Z,96.16
2022-11-16T06:09:12.444Z,96.71
2022-11-16T06:12:15.372Z,97.23
2022-11-16T06:15:18.569Z,97.32
2022-11-16T06:18:21.425Z,97.20
2022-11-16T06:21:25.491Z,97.16
2022-11-16T06:24:29.370Z,96.95
2022-11-16T06:27:32.062Z,97.18
2022-11-16T06:30:34.760Z,96.92
2022-11-16T06:33:38.548Z,97.51
2022-11-16T06:36:46.245Z,96.18
2022-11-16T06:39:49.620Z,95.92
2022-11-16T06:42:52.743Z,95.45
2022-11-16T06:45:57.730Z,95.97
2022-11-16T06:49:00.596Z,95.46
2022-11-16T06:52:03.129Z,95.81
2022-11-16T06:55:07.207Z,95.85
2022-11-16T06:58:11.993Z,96.15
2022-11-16T07:01:17.230Z,95.45
2022-11-16T07:04:22.923Z,94.88
2022-11-16T07:07:31.660Z,95.10
2022-11-16T07:10:35.649Z,94.96
2022-11-16T07:13:39.300Z,94.79
2022-11-16T07:16:44.122Z,94.73
2022-11-16T07:19:48.722Z,95.92
2022-11-16T07:22:51.451Z,96.05
2022-11-16T07:25:54.249Z,96.03
2022-11-16T07:29:10.319Z,95.46
2022-11-16T07:32:17.168Z,94.87
2022-11-16T07:35:49.340Z,94.69
2022-11-16T07:38:52.882Z,95.10
2022-11-16T07:41:56.421Z,94.94
2022-11-16T07:45:24.803Z,95.92
2022-11-16T07:48:33.371Z,94.69
2022-11-16T07:51:54.920Z,94.69
2022-11-16T07:55:20.404Z,95.03
2022-11-16T07:58:28.853Z,94.79
2022-11-16T08:01:33.416Z,94.31
2022-11-16T08:04:38.388Z,94.96
2022-11-16T08:07:40.920Z,94.07
2022-11-16T08:10:43.651Z,94.53
2022-11-16T08:13:47.277Z,93.33
2022-11-16T08:16:49.832Z,93.80
2022-11-16T08:19:54.874Z,93.53
2022-11-16T08:23:01.095Z,94.68
2022-11-16T08:26:09.461Z,93.92
2022-11-16T08:29:15.186Z,94.00
2022-11-16T08:32:23.290Z,93.82
2022-11-16T08:35:25.896Z,93.50
2022-11-16T08:38:28.663Z,93.44
2022-11-16T08:41:31.478Z,93.77
2022-11-16T08:44:35.283Z,92.82
2022-11-16T08:47:41.512Z,93.30
2022-11-16T08:51:10.436Z,93.61
2022-11-16T08:54:06.718Z,93.46
2022-11-16T08:57:12.406Z,93.46
2022-11-16T09:00:19.337Z,92.91
2022-11-16T09:03:23.502Z,92.36
2022-11-16T09:06:27.510Z,92.90
2022-11-16T09:09:29.932Z,93.21
2022-11-16T09:12:34.110Z,93.83
2022-11-16T09:15:36.850Z,93.99
2022-11-16T09:18:39.650Z,93.62
2022-11-16T09:21:42.656Z,93.03
2022-11-16T09:24:45.213Z,93.10
2022-11-16T09:27:47.661Z,92.64
2022-11-16T09:30:51.343Z,92.42
2022-11-16T09:33:55.365Z,91.91
2022-11-16T09:36:57.934Z,92.48
2022-11-16T09:40:00.539Z,91.95
2022-11-16T09:43:18.218Z,93.13
2022-11-16T09:46:20.614Z,92.05
2022-11-16T09:49:26.840Z,92.63
2022-11-16T09:52:49.508Z,92.35
2022-11-16T09:55:59.923Z,91.42
2022-11-16T09:59:04.878Z,91.32
2022-11-16T10:02:29.606Z,91.67
2022-11-16T10:05:39.239Z,91.33
2022-11-16T10:08:45.585Z,91.18
2022-11-16T10:12:06.803Z,91.01
2022-11-16T10:15:36.334Z,90.68
2022-11-16T10:19:14.983Z,90.14
2022-11-16T10:22:24.140Z,90.39
2022-11-16T10:25:53.504Z,90.20
2022-11-16T10:29:05.216Z,91.67
2022-11-16T10:32:28.988Z,91.73
2022-11-16T10:35:42.198Z,90.53
2022-11-16T10:38:45.562Z,91.64
2022-11-16T10:41:51.480Z,91.54
2022-11-16T10:44:58.696Z,91.00
2022-11-16T10:48:39.568Z,91.71
2022-11-16T10:51:43.112Z,92.49
2022-11-16T10:54:45.655Z,92.04
2022-11-16T10:58:05.318Z,91.66
2022-11-16T11:01:12.582Z,91.89
2022-11-16T11:04:16.416Z,91.05
2022-11-16T11:07:24.638Z,92.16
2022-11-16T11:10:33.471Z,92.89
2022-11-16T11:13:36.344Z,92.11
2022-11-16T11:16:41.401Z,92.18
2022-11-16T11:19:44.804Z,91.74
2022-11-16T11:22:56.476Z,92.49
2022-11-16T11:26:00.337Z,92.19
2022-11-16T11:29:09.395Z,92.68
2022-11-16T11:32:19.460Z,92.13
2022-11-16T11:35:34.274Z,92.68
2022-11-16T11:39:15.325Z,92.73
2022-11-16T11:42:18.040Z,92.54
2022-11-16T11:45:22.793Z,91.25
2022-11-16T11:48:47.812Z,91.69
2022-11-16T11:51:52.304Z,91.70
2022-11-16T11:54:55.837Z,90.95
2022-11-16T11:57:59.544Z,90.40
2022-11-16T12:01:13.671Z,90.30
2022-11-16T12:04:53.517Z,90.07
2022-11-16T12:08:17.265Z,90.55
2022-11-16T12:11:25.640Z,90.64
2022-11-16T12:15:08.646Z,91.64
2022-11-16T12:18:29.348Z,91.47
2022-11-16T12:21:48.476Z,92.15
2022-11-16T12:25:31.408Z,91.91
2022-11-16T12:28:51.335Z,92.27
2022-11-16T12:32:25.580Z,91.93
2022-11-16T12:35:48.815Z,92.75
2022-11-16T12:38:59.545Z,93.02
2022-11-16T12:42:20.841Z,92.75
2022-11-16T12:45:32.588Z,92.53
2022-11-16T12:48:59.125Z,92.61
2022-11-16T12:52:23.494Z,93.63
2022-11-16T12:55:32.907Z,93.70
2022-11-16T12:59:04.471Z,93.63
2022-11-16T13:02:30.053Z,93.63
2022-11-16T13:05:48.184Z,93.56
2022-11-16T13:09:11.538Z,94.30
2022-11-16T13:12:17.380Z,94.81
2022-11-16T13:15:21.973Z,94.39
2022-11-16T13:18:25.369Z,94.72
2022-11-16T13:21:32.295Z,95.02
2022-11-16T13:24:58.740Z,95.66
2022-11-16T13:28:29.378Z,95.70
2022-11-16T13:31:38.781Z,95.79
2022-11-16T13:34:41.549Z,96.05
2022-11-16T13:37:51.947Z,95.79
2022-11-16T13:41:32.537Z,96.33
2022-11-16T13:44:35.086Z,96.84
2022-11-16T13:47:37.587Z,96.67
2022-11-16T13:50:40.178Z,96.57
2022-11-16T13:57:31.929Z,97.06
2022-11-16T14:00:39.592Z,96.68
2022-11-16T14:03:43.527Z,97.42
2022-11-16T14:06:45.904Z,97.60
2022-11-16T14:09:51.430Z,97.66
2022-11-16T14:12:54.510Z,97.81
2022-11-16T14:16:14.974Z,97.88
2022-11-16T14:19:49.110Z,97.57
2022-11-16T14:22:57.212Z,97.80
2022-11-16T14:26:02.561Z,97.11
2022-11-16T14:29:27.866Z,97.24
2022-11-16T14:32:41.271Z,98.13
2022-11-16T14:35:51.047Z,97.89
2022-11-16T14:38:53.542Z,97.34
2022-11-16T14:42:02.053Z,97.73
2022-11-16T14:45:13.557Z,97.78
2022-11-16T14:48:18.656Z,98.32
2022-11-16T14:51:41.379Z,97.95
2022-11-16T14:54:55.748Z,97.85
2022-11-16T14:58:08.792Z,98.29
2022-11-16T15:01:14.809Z,98.21
2022-11-16T15:04:18.067Z,97.83
2022-11-16T15:07:23.083Z,97.71
2022-11-16T15:10:28.102Z,97.79
2022-11-16T15:13:30.494Z,97.67
2022-11-16T15:16:32.832Z,98.32
2022-11-16T15:19:35.836Z,98.48
2022-11-16T15:22:40.633Z,98.13
2022-11-16T15:25:45.092Z,97.50
2022-11-16T15:28:50.195Z,98.25
2022-11-16T15:31:52.691Z,98.15
2022-11-16T15:34:55.096Z,98.20
2022-11-16T15:38:16.275Z,98.13
2022-11-16T15:41:19.406Z,97.86
2022-11-16T15:44:22.657Z,98.11
2022-11-16T15:47:25.313Z,97.67
2022-11-16T15:50:28.107Z,98.10
2022-11-16T15:53:44.707Z,98.75
2022-11-16T15:56:47.198Z,98.05
2022-11-16T15:59:54.596Z,97.76
2022-11-16T16:03:04.190Z,97.81
2022-11-16T16:06:08.580Z,98.19
2022-11-16T16:09:14.601Z,97.61
2022-11-16T16:12:24.673Z,98.12
2022-11-16T16:15:36.149Z,98.11
2022-11-16T16:18:43.183Z,98.01
2022-11-16T16:21:46.437Z,97.75
2022-11-16T16:24:48.859Z,98.25
2022-11-16T16:27:51.256Z,97.63
2022-11-16T16:30:53.579Z,98.38
2022-11-16T16:33:56.086Z,97.93
2022-11-16T16:36:58.421Z,98.04
2022-11-16T16:40:00.853Z,97.63
2022-11-16T16:43:03.252Z,98.18
2022-11-16T16:46:05.938Z,98.50
2022-11-16T16:49:08.341Z,97.89
2022-11-16T16:52:12.117Z,98.88
2022-11-16T16:55:14.625Z,98.74
2022-11-16T16:58:17.036Z,98.48
2022-11-16T17:01:19.450Z,98.98
2022-11-16T17:04:22.087Z,98.05
2022-11-16T17:07:25.183Z,98.61
2022-11-16T17:10:27.679Z,98.21
2022-11-16T17:13:30.333Z,98.72
2022-11-16T17:16:32.849Z,99.10
2022-11-16T17:19:35.656Z,98.86
2022-11-16T17:22:38.316Z,98.96
2022-11-16T17:25:41.411Z,98.72
2022-11-16T17:28:44.290Z,98.29
2022-11-16T17:31:47.617Z,98.98
2022-11-16T17:34:50.210Z,98.66
2022-11-16T17:37:52.841Z,98.74
2022-11-16T17:41:04.004Z,98.57
2022-11-16T17:44:06.857Z,98.50
2022-11-16T17:47:09.224Z,98.44
2022-11-16T17:50:11.982Z,98.46
2022-11-16T17:53:14.545Z,98.88
2022-11-16T17:56:19.875Z,98.51
2022-11-16T17:59:27.975Z,98.70
2022-11-16T18:02:32.475Z,98.49
2022-11-16T18:05:35.102Z,98.69
2022-11-16T18:08:37.883Z,99.01
2022-11-16T18:11:40.406Z,99.13
2022-11-16T18:14:59.952Z,98.75
2022-11-16T18:18:06.058Z,98.09
2022-11-16T18:21:09.626Z,99.16
2022-11-16T18:24:12.703Z,98.76
2022-11-16T18:27:15.462Z,98.95
2022-11-16T18:30:18.217Z,98.72
2022-11-16T18:33:20.576Z,99.20
2022-11-16T18:36:23.037Z,99.15
2022-11-16T18:39:25.723Z,98.62
2022-11-16T18:42:28.367Z,99.47
2022-11-16T18:45:31.096Z,99.06
2022-11-16T18:48:33.845Z,99.28
2022-11-16T18:51:36.489Z,99.02
2022-11-16T18:54:39.146Z,99.84
2022-11-16T18:57:41.756Z,99.20
2022-11-16T19:00:46.040Z,99.26
2022-11-16T19:03:48.702Z,99.90
2022-11-16T19:06:51.274Z,99.58
2022-11-16T19:09:54.083Z,99.08
2022-11-16T19:12:57.419Z,99.25
2022-11-16T19:15:59.883Z,99.33
2022-11-16T19:19:03.009Z,99.83
2022-11-16T19:22:05.335Z,99.38
2022-11-16T19:25:08.205Z,100.00
2022-11-16T19:28:10.787Z,100.00
2022-11-16T19:31:16.202Z,99.67
2022-11-16T19:34:19.054Z,100.00
2022-11-16T19:37:21.635Z,99.73
2022-11-16T19:40:25.321Z,99.97
2022-11-16T19:43:28.124Z,100.00
2022-11-16T19:46:31.999Z,100.00
2022-11-16T19:49:34.951Z,99.64
2022-11-16T19:52:37.940Z,100.00
2022-11-16T19:55:41.782Z,99.53
2022-11-16T19:58:44.611Z,100.00
2022-11-16T20:01:47.301Z,100.00
2022-11-16T20:04:49.809Z,100.00
2022-11-16T20:07:52.647Z,100.00
2022-11-16T20:10:55.279Z,100.00
2022-11-16T20:13:59.128Z,100.00
2022-11-16T20:17:01.990Z,100.00
2022-11-16T20:20:04.999Z,99.96
2022-11-16T20:23:07.661Z,99.85
2022-11-16T20:26:11.053Z,100.00
2022-11-16T20:29:15.654Z,100.00
2022-11-16T20:32:18.143Z,100.00
2022-11-16T20:35:20.752Z,100.00
2022-11-16T20:38:23.433Z,100.00
2022-11-16T20:41:27.927Z,100.00
2022-11-16T20:44:31.271Z,100.00
2022-11-16T20:47:34.082Z,99.72
2022-11-16T20:50:36.568Z,100.00
2022-11-16T20:53:39.172Z,100.00
2022-11-16T20:56:41.706Z,100.00
2022-11-16T20:59:44.087Z,99.74
2022-11-16T21:02:46.672Z,99.79
2022-11-16T21:05:52.029Z,99.73
2022-11-16T21:08:55.388Z,99.46
2022-11-16T21:12:16.283Z,100.00
2022-11-16T21:15:19.056Z,99.41
2022-11-16T21:18:24.238Z,99.47
2022-11-16T21:21:29.732Z,100.00
2022-11-16T21:24:32.247Z,99.61
2022-11-16T21:27:34.712Z,99.47
2022-11-16T21:30:37.197Z,99.73
2022-11-16T21:33:39.678Z,99.78
2022-11-16T21:36:42.143Z,99.38
2022-11-16T21:39:44.576Z,99.65
2022-11-16T21:42:47.478Z,100.00
2022-11-16T21:45:51.043Z,99.07
2022-11-16T21:48:55.368Z,99.36
2022-11-16T21:51:57.898Z,98.73
2022-11-16T21:55:00.377Z,98.57
2022-11-16T21:58:03.642Z,99.04
2022-11-16T22:01:06.461Z,99.44
2022-11-16T22:04:27.758Z,98.44
2022-11-16T22:07:32.996Z,98.72
2022-11-16T22:10:41.839Z,98.61
2022-11-16T22:13:44.246Z,98.67
2022-11-16T22:16:46.549Z,98.82
2022-11-16T22:19:49.047Z,98.29
2022-11-16T22:22:51.461Z,98.85
2022-11-16T22:25:54.566Z,98.93
2022-11-16T22:28:58.363Z,97.79
2022-11-16T22:32:00.778Z,98.14
2022-11-16T22:35:03.311Z,97.75
2022-11-16T22:38:05.778Z,97.85
2022-11-16T22:41:08.102Z,98.43
2022-11-16T22:44:10.488Z,97.46
2022-11-16T22:47:12.903Z,97.57
2022-11-16T22:50:15.632Z,97.96
2022-11-16T22:53:18.003Z,98.25
2022-11-16T22:56:20.675Z,97.88
2022-11-16T22:59:23.073Z,98.40
2022-11-16T23:02:25.431Z,97.83
2022-11-16T23:05:27.771Z,97.68
2022-11-16T23:08:30.252Z,98.27
2022-11-16T23:11:50.987Z,97.43
2022-11-16T23:15:12.071Z,97.62
2022-11-16T23:18:15.001Z,97.72
2022-11-16T23:21:35.967Z,97.74
2022-11-16T23:24:56.992Z,98.01
2022-11-16T23:28:12.343Z,97.78
2022-11-16T23:31:14.727Z,97.84
2022-11-16T23:34:17.087Z,97.58
2022-11-16T23:37:19.478Z,97.35
2022-11-16T23:40:23.949Z,97.86
2022-11-16T23:43:44.630Z,98.54
2022-11-16T23:46:47.084Z,97.75
2022-11-16T23:49:49.724Z,97.97
2022-11-16T23:52:52.219Z,98.31
2022-11-16T23:55:54.561Z,97.37
2022-11-16T23:59:00.086Z,97.58
